Latest Coastal Weather Observations for Flinders Reef

IDQ60701

Issued at 7:55 pm EST Thursday 24 April 2014 (issued every 10 minutes, with the page automatically refreshed every 10 minutes)

About coastal observations | Map of coastal stations | Coastal observations for QLD | Marine services | Other Formats
Station Details ID: 200783 Name: FLINDERS REEF Lat: -17.72 Lon: 148.45 Height: 2.6 m
Data from the previous 72 hours. | See also: Recent months at Flinders Reef
Date/Time
EST
Temp

°C
Wind Pressure Rain
since 9am
mm
Weather Cloud Vis
km
Sea
Height
m
Swell
Dir
 
Speed
knots
Gust
knots
hPa Trend Height
m
Period
s
Dir
24/07:30pm 26.8 ESE 19 22 1011.4 - - - - - - - - -
24/07:24pm 27.1 ESE 19 - 1011.2 - - - - - - - - -
24/07:00pm 27.0 ESE 19 22 1010.9 - - - - - - - - -
24/06:30pm 26.8 ESE 17 19 1010.7 - - - - - - - - -
24/06:24pm 27.1 E 18 - 1010.5 - - - - - - - - -
24/06:00pm 26.9 E 18 21 1010.3 - - - - - - - - -
24/05:30pm 26.9 E 16 18 1010.2 - - - - - - - - -
24/05:24pm 26.8 E 16 - 1010.1 - - - - - - - - -
24/05:00pm 26.7 E 19 21 1009.9 - - - - - - - - -
24/04:30pm 26.9 E 18 21 1009.6 - - - - - - - - -
24/04:24pm 26.8 E 19 - 1009.4 - - - - - - - - -
24/04:00pm 27.0 E 19 22 1009.4 - - - - - - - - -
24/03:30pm 27.1 E 19 21 1009.3 - - - - - - - - -
24/03:24pm 27.0 E 19 - 1009.2 - - - - - - - - -
24/03:00pm 27.4 E 18 21 1009.1 - - - - - - - - -
24/02:30pm 27.2 E 19 23 1009.2 - - - - - - - - -
24/02:24pm 27.1 E 20 - 1009.1 - - - - - - - - -
24/02:00pm 27.0 E 19 23 1009.4 - - - - - - - - -
24/01:30pm 26.9 E 19 23 1009.8 - - - - - - - - -
24/01:24pm 26.7 E 20 - 1009.7 - - - - - - - - -
24/01:00pm 26.7 E 21 24 1010.2 - - - - - - - - -
24/12:30pm 27.0 E 23 28 1010.5 - - - - - - - - -
24/12:24pm 26.7 E 25 - 1010.2 - - - - - - - - -
24/12:00pm 26.6 E 25 29 1010.5 - - - - - - - - -
24/11:30am 27.0 E 27 31 1011.0 - - - - - - - - -
24/11:24am 26.8 E 26 - 1010.9 - - - - - - - - -
24/11:00am 26.7 E 26 31 1011.4 - - - - - - - - -
24/10:30am 26.5 E 26 30 1011.7 - - - - - - - - -
24/10:24am 26.4 E 26 - 1011.7 - - - - - - - - -
24/10:00am 26.8 E 25 28 1012.2 - - - - - - - - -
24/09:30am 26.7 ESE 22 26 1012.2 - - - - - - - - -
24/09:24am 26.7 ESE 22 - 1012.0 - - - - - - - - -
24/09:00am 26.7 ESE 23 27 1012.2 - - - - - - - - -
24/08:30am 26.4 ESE 22 27 1012.0 - - - - - - - - -
24/08:24am 26.5 ESE 23 - 1011.9 - - - - - - - - -
24/08:00am 26.4 ESE 22 25 1011.8 - - - - - - - - -
24/07:30am 26.2 ESE 22 26 1011.5 - - - - - - - - -
24/07:24am 26.4 ESE 21 - 1011.4 - - - - - - - - -
24/07:00am 26.3 ESE 21 25 1011.2 - - - - - - - - -
24/06:30am 25.7 SE 24 27 1010.7 - - - - - - - - -
24/06:24am 25.6 SE 24 - 1010.5 - - - - - - - - -
24/06:00am 25.8 SE 22 26 1010.4 - - - - - - - - -
24/05:30am 25.6 SE 23 26 1010.2 - - - - - - - - -
24/05:24am 25.4 SE 23 - 1010.1 - - - - - - - - -
24/05:00am 25.5 SE 23 27 1010.2 - - - - - - - - -
24/04:30am 25.2 SSE 22 26 1010.2 - - - - - - - - -
24/04:24am 25.6 SSE 22 - 1010.1 - - - - - - - - -
24/04:00am 25.4 SE 24 28 1010.1 - - - - - - - - -
24/03:30am 25.7 SSE 21 24 1010.1 - - - - - - - - -
24/03:24am 26.0 SSE 20 - 1010.1 - - - - - - - - -
24/03:00am 25.9 SSE 20 23 1010.1 - - - - - - - - -
24/02:30am 26.0 S 18 20 1010.3 - - - - - - - - -
24/02:24am 26.1 S 17 - 1010.2 - - - - - - - - -
24/02:00am 26.1 S 15 17 1010.4 - - - - - - - - -
24/01:30am 26.2 S 14 17 1010.8 - - - - - - - - -
24/01:24am 26.1 S 14 - 1010.8 - - - - - - - - -
24/01:00am 25.8 S 15 16 1011.4 - - - - - - - - -
24/12:30am 25.9 S 14 16 1011.9 - - - - - - - - -
24/12:24am 25.9 S 14 - 1011.9 - - - - - - - - -
24/12:00am 26.0 S 14 16 1012.3 - - - - - - - - -
 
Date/Time
EST
Temp

°C
Wind Pressure Rain
since 9am
mm
Weather Cloud Vis
km
Sea
Height
m
Swell
Dir
 
Speed
knots
Gust
knots
hPa Trend Height
m
Period
s
Dir
23/11:30pm 26.6 SSE 10 11 1012.6 - - - - - - - - -
23/11:24pm 26.5 SSE 10 - 1012.5 - - - - - - - - -
23/10:30pm 26.6 SE 9 10 1012.6 - - - - - - - - -
23/10:24pm 26.6 SE 9 - 1012.5 - - - - - - - - -
23/10:00pm 26.7 SE 8 9 1012.8 - - - - - - - - -
23/09:30pm 26.7 SE 9 10 1012.9 - - - - - - - - -
23/09:24pm 26.7 SE 9 - 1012.8 - - - - - - - - -
23/09:00pm 26.8 SSE 8 9 1012.6 - - - - - - - - -
23/08:30pm 26.7 SSE 6 6 1012.3 - - - - - - - - -
23/08:24pm 26.6 SSE 6 - 1012.1 - - - - - - - - -
23/08:00pm 26.4 SSE 8 11 1012.0 - - - - - - - - -
23/07:30pm 26.6 SSE 9 10 1011.7 - - - - - - - - -
23/07:24pm 26.7 SSE 9 - 1011.4 - - - - - - - - -
23/07:00pm 26.7 S 10 11 1011.3 - - - - - - - - -
23/06:30pm 26.4 S 10 11 1011.2 - - - - - - - - -
23/06:24pm 26.5 SSE 9 - 1011.0 - - - - - - - - -
23/06:00pm 26.5 S 10 11 1010.9 - - - - - - - - -
23/05:30pm 26.5 SSE 10 12 1010.7 - - - - - - - - -
23/05:24pm 26.5 SSE 10 - 1010.6 - - - - - - - - -
23/05:00pm 26.4 S 10 12 1010.5 - - - - - - - - -
23/04:30pm 26.3 S 11 12 1010.3 - - - - - - - - -
23/04:24pm 26.4 S 10 - 1010.1 - - - - - - - - -
23/04:00pm 25.8 S 13 16 1010.1 - - - - - - - - -
23/03:30pm 26.2 SSE 13 15 1010.0 - - - - - - - - -
23/03:24pm 26.1 SSE 13 - 1010.0 - - - - - - - - -
23/03:00pm 26.6 SSE 14 16 1010.1 - - - - - - - - -
23/02:30pm 26.9 SSE 14 16 1010.3 - - - - - - - - -
23/02:24pm 26.9 SSE 14 - 1010.2 - - - - - - - - -
23/02:00pm 27.0 SSE 15 18 1010.5 - - - - - - - - -
23/01:30pm 26.9 SSE 15 18 1010.6 - - - - - - - - -
23/01:24pm 26.7 SSE 15 - 1010.7 - - - - - - - - -
23/01:00pm 26.6 SE 14 18 1011.3 - - - - - - - - -
23/12:30pm 26.8 SSE 13 17 1011.8 - - - - - - - - -
23/12:24pm 26.8 SE 14 - 1011.8 - - - - - - - - -
23/12:00pm 27.2 SE 14 15 1012.0 - - - - - - - - -
23/11:30am 27.3 SE 15 17 1012.4 - - - - - - - - -
23/11:24am 27.2 SE 15 - 1012.4 - - - - - - - - -
23/11:00am 26.9 SE 15 17 1012.7 - - - - - - - - -
23/10:30am 27.5 SE 13 15 1013.3 - - - - - - - - -
23/10:24am 27.5 SE 14 - 1013.2 - - - - - - - - -
23/10:00am 27.2 SE 14 16 1013.3 - - - - - - - - -
23/09:30am 27.3 SE 15 17 1013.2 - - - - - - - - -
23/09:24am 27.1 SE 16 - 1013.1 - - - - - - - - -
23/09:00am 27.1 SE 16 20 1013.1 - - - - - - - - -
23/08:30am 27.0 ESE 15 17 1013.0 - - - - - - - - -
23/08:24am 27.1 SE 16 - 1012.8 - - - - - - - - -
23/08:00am 27.2 ESE 17 20 1012.6 - - - - - - - - -
23/07:30am 26.8 ESE 18 20 1012.4 - - - - - - - - -
23/07:24am 26.8 SE 18 - 1012.3 - - - - - - - - -
23/07:00am 26.8 ESE 17 19 1012.3 - - - - - - - - -
23/06:30am 26.8 ESE 16 19 1012.0 - - - - - - - - -
23/06:24am 26.6 ESE 16 - 1011.9 - - - - - - - - -
23/06:00am 26.7 SE 16 18 1012.0 - - - - - - - - -
23/05:30am 26.6 ESE 15 17 1011.8 - - - - - - - - -
23/05:24am 26.5 ESE 15 - 1011.7 - - - - - - - - -
23/05:00am 26.6 ESE 17 19 1011.9 - - - - - - - - -
23/04:30am 26.8 ESE 16 18 1011.8 - - - - - - - - -
23/04:24am 26.7 ESE 16 - 1011.8 - - - - - - - - -
23/04:00am 26.6 ESE 15 18 1011.8 - - - - - - - - -
23/03:30am 26.7 ESE 15 18 1011.9 - - - - - - - - -
23/03:24am 26.8 ESE 15 - 1011.8 - - - - - - - - -
23/03:00am 26.7 ESE 17 19 1012.0 - - - - - - - - -
23/02:30am 26.6 ESE 18 20 1012.0 - - - - - - - - -
23/02:24am 26.7 ESE 17 - 1011.9 - - - - - - - - -
23/02:00am 26.7 ESE 17 20 1012.3 - - - - - - - - -
23/01:30am 26.6 ESE 16 19 1012.8 - - - - - - - - -
23/01:24am 26.8 ESE 16 - 1012.7 - - - - - - - - -
23/01:00am 26.7 ESE 16 18 1013.0 - - - - - - - - -
23/12:30am 26.8 ESE 16 19 1013.5 - - - - - - - - -
23/12:24am 26.8 ESE 17 - 1013.5 - - - - - - - - -
23/12:00am 26.8 ESE 17 19 1013.9 - - - - - - - - -
 
Date/Time
EST
Temp

°C
Wind Pressure Rain
since 9am
mm
Weather Cloud Vis
km
Sea
Height
m
Swell
Dir
 
Speed
knots
Gust
knots
hPa Trend Height
m
Period
s
Dir
22/11:30pm 26.8 ESE 17 20 1013.9 - - - - - - - - -
22/11:24pm 26.7 ESE 17 - 1013.8 - - - - - - - - -
22/11:00pm 26.8 ESE 17 20 1014.2 - - - - - - - - -
22/10:30pm 26.7 ESE 18 22 1014.3 - - - - - - - - -
22/10:24pm 26.6 ESE 17 - 1014.3 - - - - - - - - -
22/10:00pm 26.8 ESE 17 20 1014.6 - - - - - - - - -
22/09:30pm 26.6 ESE 17 19 1014.6 - - - - - - - - -
22/09:24pm 26.6 ESE 18 - 1014.5 - - - - - - - - -
22/09:00pm 26.5 SE 17 19 1014.6 - - - - - - - - -
22/08:30pm 26.7 SE 19 23 1014.6 - - - - - - - - -
22/08:24pm 26.6 SE 19 - 1014.3 - - - - - - - - -
22/08:00pm 26.6 SE 19 24 1014.4 - - - - - - - - -
22/07:30pm 26.5 SE 18 21 1014.2 - - - - - - - - -
22/07:24pm 26.6 SE 18 - 1014.2 - - - - - - - - -
22/07:00pm 26.7 SE 20 22 1013.8 - - - - - - - - -
22/06:30pm 26.6 SE 19 22 1013.7 - - - - - - - - -
22/06:24pm 26.5 SE 19 - 1013.5 - - - - - - - - -
22/06:00pm 26.7 SE 19 21 1013.5 - - - - - - - - -
22/05:30pm 26.6 SE 19 22 1013.3 - - - - - - - - -
22/05:24pm 26.6 SE 19 - 1013.1 - - - - - - - - -
22/05:00pm 26.6 SE 19 23 1013.1 - - - - - - - - -
22/04:30pm 26.7 SE 18 22 1013.1 - - - - - - - - -
22/04:24pm 26.5 SE 19 - 1013.0 - - - - - - - - -
22/04:00pm 26.5 SE 19 22 1013.0 - - - - - - - - -
22/03:30pm 26.6 SE 18 21 1013.0 - - - - - - - - -
22/03:24pm 26.6 SE 18 - 1012.8 - - - - - - - - -
22/03:00pm 26.9 SE 17 19 1013.0 - - - - - - - - -
22/02:30pm 26.7 SE 16 19 1013.3 - - - - - - - - -
22/02:24pm 26.7 SE 16 - 1013.3 - - - - - - - - -
22/02:00pm 26.7 ESE 17 19 1013.3 - - - - - - - - -
22/01:30pm 26.7 ESE 16 19 1013.7 - - - - - - - - -
22/01:24pm 26.9 ESE 16 - 1013.8 - - - - - - - - -
22/01:00pm 26.8 SE 17 19 1014.0 - - - - - - - - -
22/12:30pm 26.8 SE 17 19 1014.4 - - - - - - - - -
22/12:24pm 26.8 SE 17 - 1014.4 - - - - - - - - -
22/12:00pm 26.8 SE 17 20 1014.8 - - - - - - - - -
22/11:30am 26.8 ESE 17 20 1015.4 - - - - - - - - -
22/11:24am 26.8 ESE 17 - 1015.4 - - - - - - - - -
22/11:00am 26.9 ESE 17 21 1015.8 - - - - - - - - -
22/10:30am 26.7 ESE 19 21 1016.0 - - - - - - - - -
22/10:24am 26.7 ESE 19 - 1015.9 - - - - - - - - -
22/10:00am 26.8 ESE 19 22 1016.1 - - - - - - - - -
22/09:30am 26.6 SE 18 21 1016.1 - - - - - - - - -
22/09:24am 26.7 SE 18 - 1016.1 - - - - - - - - -
22/09:00am 26.7 ESE 17 19 1016.2 - - - - - - - - -
22/08:30am 26.4 ESE 17 21 1015.8 - - - - - - - - -
22/08:24am 26.4 ESE 18 - 1015.7 - - - - - - - - -
22/08:00am 26.5 ESE 19 22 1015.7 - - - - - - - - -
22/07:30am 26.4 ESE 18 21 1015.5 - - - - - - - - -
22/07:24am 26.5 ESE 18 - 1015.3 - - - - - - - - -
22/07:00am 26.3 ESE 18 21 1015.3 - - - - - - - - -
22/06:30am 26.3 E 19 21 1014.9 - - - - - - - - -
22/06:24am 26.5 E 19 - 1014.8 - - - - - - - - -
22/06:00am 26.5 E 18 21 1014.8 - - - - - - - - -
22/05:30am 26.4 ESE 17 20 1014.7 - - - - - - - - -
22/05:24am 26.3 ESE 17 - 1014.6 - - - - - - - - -
22/05:00am 26.3 ESE 17 20 1014.4 - - - - - - - - -
22/04:30am 26.5 E 18 22 1014.5 - - - - - - - - -
22/04:24am 26.4 ESE 18 - 1014.3 - - - - - - - - -
22/04:00am 26.5 ESE 18 20 1014.4 - - - - - - - - -
22/03:30am 26.5 ESE 19 23 1014.1 - - - - - - - - -
22/03:24am 26.5 ESE 19 - 1014.1 - - - - - - - - -
22/03:00am 26.4 ESE 20 23 1014.3 - - - - - - - - -
22/02:30am 26.5 ESE 19 21 1014.7 - - - - - - - - -
22/02:24am 26.3 ESE 19 - 1014.5 - - - - - - - - -
22/02:00am 26.3 ESE 19 23 1014.8 - - - - - - - - -
22/01:30am 26.5 ESE 19 23 1015.0 - - - - - - - - -
22/01:24am 26.5 ESE 20 - 1015.0 - - - - - - - - -
22/01:00am 26.4 E 19 22 1015.3 - - - - - - - - -
22/12:30am 26.3 E 21 24 1015.6 - - - - - - - - -
22/12:24am 26.4 E 21 - 1015.5 - - - - - - - - -
22/12:00am 26.5 ESE 21 25 1015.8 - - - - - - - - -
 
Date/Time
EST
Temp

°C
Wind Pressure Rain
since 9am
mm
Weather Cloud Vis
km
Sea
Height
m
Swell
Dir
 
Speed
knots
Gust
knots
hPa Trend Height
m
Period
s
Dir
21/11:30pm 26.5 E 22 25 1015.8 - - - - - - - - -
21/11:24pm 26.3 E 22 - 1015.7 - - - - - - - - -
21/11:00pm 26.4 E 23 27 1015.8 - - - - - - - - -
21/10:30pm 26.6 ESE 23 26 1015.9 - - - - - - - - -
21/10:24pm 26.6 ESE 22 - 1015.9 - - - - - - - - -
21/10:00pm 26.5 E 22 26 1015.9 - - - - - - - - -
21/09:30pm 26.5 ESE 23 25 1016.0 - - - - - - - - -
21/09:24pm 26.6 ESE 23 - 1015.8 - - - - - - - - -
21/09:00pm 26.6 ESE 23 26 1016.1 - - - - - - - - -
21/08:30pm 26.8 ESE 21 24 1016.0 - - - - - - - - -
21/08:24pm 26.6 E 20 - 1016.0 - - - - - - - - -
21/08:00pm 26.7 E 20 23 1016.0 - - - - - - - - -

Other Formats:

Comma delimited format used in spreadsheet applications
http://www.bom.gov.au/fwo/IDQ60701/IDQ60701.94290.axf

JavaScript Object Notation format (JSON) in row-major order
http://www.bom.gov.au/fwo/IDQ60701/IDQ60701.94290.json